sensor_id;sensor_type;location;lat;lon;timestamp;P1;durP1;ratioP1;P2;durP2;ratioP2
74291;SDS011;62687;55.738;37.516;2022-12-18T00:01:04;10.23;;;5.38;;
74291;SDS011;62687;55.738;37.516;2022-12-18T00:03:57;12.45;;;5.60;;
74291;SDS011;62687;55.738;37.516;2022-12-18T00:06:41;8.98;;;5.13;;
74291;SDS011;62687;55.738;37.516;2022-12-18T00:09:25;12.10;;;5.93;;
74291;SDS011;62687;55.738;37.516;2022-12-18T00:12:09;12.40;;;5.43;;
74291;SDS011;62687;55.738;37.516;2022-12-18T00:14:53;9.48;;;4.53;;
74291;SDS011;62687;55.738;37.516;2022-12-18T00:17:37;11.65;;;5.45;;
74291;SDS011;62687;55.738;37.516;2022-12-18T00:20:21;9.50;;;4.85;;
74291;SDS011;62687;55.738;37.516;2022-12-18T00:23:09;13.05;;;5.53;;
74291;SDS011;62687;55.738;37.516;2022-12-18T00:25:53;10.50;;;5.15;;
74291;SDS011;62687;55.738;37.516;2022-12-18T00:28:37;11.52;;;5.68;;
74291;SDS011;62687;55.738;37.516;2022-12-18T00:31:22;11.07;;;5.30;;
74291;SDS011;62687;55.738;37.516;2022-12-18T00:34:11;12.50;;;5.43;;
74291;SDS011;62687;55.738;37.516;2022-12-18T00:36:56;11.18;;;5.00;;
74291;SDS011;62687;55.738;37.516;2022-12-18T00:39:40;9.48;;;4.93;;
74291;SDS011;62687;55.738;37.516;2022-12-18T00:42:24;10.25;;;4.25;;
74291;SDS011;62687;55.738;37.516;2022-12-18T00:45:28;9.10;;;4.95;;
74291;SDS011;62687;55.738;37.516;2022-12-18T00:48:14;8.93;;;4.38;;
74291;SDS011;62687;55.738;37.516;2022-12-18T00:50:58;9.20;;;4.43;;
74291;SDS011;62687;55.738;37.516;2022-12-18T00:53:42;9.25;;;4.63;;
74291;SDS011;62687;55.738;37.516;2022-12-18T00:56:26;11.80;;;5.43;;
74291;SDS011;62687;55.738;37.516;2022-12-18T00:59:10;10.98;;;4.60;;
74291;SDS011;62687;55.738;37.516;2022-12-18T01:01:54;10.75;;;4.82;;
74291;SDS011;62687;55.738;37.516;2022-12-18T01:04:38;9.10;;;4.57;;
74291;SDS011;62687;55.738;37.516;2022-12-18T01:07:23;10.57;;;4.63;;
74291;SDS011;62687;55.738;37.516;2022-12-18T01:10:08;11.15;;;4.65;;
74291;SDS011;62687;55.738;37.516;2022-12-18T01:12:55;11.27;;;5.28;;
74291;SDS011;62687;55.738;37.516;2022-12-18T01:15:39;11.15;;;4.93;;
74291;SDS011;62687;55.738;37.516;2022-12-18T01:18:23;9.05;;;3.85;;
74291;SDS011;62687;55.738;37.516;2022-12-18T01:21:08;7.53;;;3.97;;
74291;SDS011;62687;55.738;37.516;2022-12-18T01:23:55;9.80;;;4.03;;
74291;SDS011;62687;55.738;37.516;2022-12-18T01:26:40;8.95;;;4.90;;
74291;SDS011;62687;55.738;37.516;2022-12-18T01:29:25;11.38;;;5.25;;
74291;SDS011;62687;55.738;37.516;2022-12-18T01:32:09;8.40;;;4.13;;
74291;SDS011;62687;55.738;37.516;2022-12-18T01:34:53;9.23;;;4.22;;
74291;SDS011;62687;55.738;37.516;2022-12-18T01:37:37;11.35;;;4.28;;
74291;SDS011;62687;55.738;37.516;2022-12-18T01:40:21;10.13;;;4.50;;
74291;SDS011;62687;55.738;37.516;2022-12-18T01:43:08;10.52;;;4.40;;
74291;SDS011;62687;55.738;37.516;2022-12-18T01:45:53;5.38;;;2.83;;
74291;SDS011;62687;55.738;37.516;2022-12-18T01:48:37;10.20;;;4.05;;
74291;SDS011;62687;55.738;37.516;2022-12-18T01:51:22;8.73;;;4.30;;
74291;SDS011;62687;55.738;37.516;2022-12-18T01:54:07;8.30;;;4.15;;
74291;SDS011;62687;55.738;37.516;2022-12-18T01:56:51;9.65;;;4.25;;
74291;SDS011;62687;55.738;37.516;2022-12-18T01:59:36;8.63;;;4.40;;
74291;SDS011;62687;55.738;37.516;2022-12-18T02:02:21;13.05;;;5.32;;
74291;SDS011;62687;55.738;37.516;2022-12-18T02:05:06;9.02;;;4.50;;
74291;SDS011;62687;55.738;37.516;2022-12-18T02:29:13;9.52;;;4.68;;
74291;SDS011;62687;55.738;37.516;2022-12-18T02:32:08;14.18;;;5.13;;
74291;SDS011;62687;55.738;37.516;2022-12-18T02:34:57;12.82;;;5.10;;
74291;SDS011;62687;55.738;37.516;2022-12-18T02:37:43;10.20;;;4.10;;
74291;SDS011;62687;55.738;37.516;2022-12-18T02:40:30;9.90;;;4.10;;
74291;SDS011;62687;55.738;37.516;2022-12-18T02:43:15;8.95;;;3.85;;
74291;SDS011;62687;55.738;37.516;2022-12-18T02:46:00;7.55;;;4.03;;
74291;SDS011;62687;55.738;37.516;2022-12-18T02:55:30;7.00;;;4.30;;
74291;SDS011;62687;55.738;37.516;2022-12-18T03:01:25;6.90;;;4.07;;
74291;SDS011;62687;55.738;37.516;2022-12-18T03:04:39;8.75;;;4.10;;
74291;SDS011;62687;55.738;37.516;2022-12-18T03:10:42;9.63;;;3.30;;
74291;SDS011;62687;55.738;37.516;2022-12-18T03:13:42;7.43;;;4.07;;
74291;SDS011;62687;55.738;37.516;2022-12-18T03:16:34;9.75;;;4.47;;
74291;SDS011;62687;55.738;37.516;2022-12-18T03:19:21;8.43;;;4.43;;
74291;SDS011;62687;55.738;37.516;2022-12-18T03:22:09;8.60;;;4.75;;
74291;SDS011;62687;55.738;37.516;2022-12-18T03:24:54;11.30;;;4.40;;
74291;SDS011;62687;55.738;37.516;2022-12-18T03:27:42;12.05;;;4.93;;
74291;SDS011;62687;55.738;37.516;2022-12-18T03:30:32;7.85;;;4.47;;
74291;SDS011;62687;55.738;37.516;2022-12-18T03:33:21;12.40;;;5.63;;
74291;SDS011;62687;55.738;37.516;2022-12-18T03:36:10;8.80;;;4.13;;
74291;SDS011;62687;55.738;37.516;2022-12-18T03:38:58;10.13;;;4.22;;
74291;SDS011;62687;55.738;37.516;2022-12-18T03:41:48;7.07;;;4.35;;
74291;SDS011;62687;55.738;37.516;2022-12-18T03:47:43;5.47;;;2.88;;
74291;SDS011;62687;55.738;37.516;2022-12-18T03:53:34;8.68;;;3.88;;
74291;SDS011;62687;55.738;37.516;2022-12-18T03:56:39;8.55;;;4.20;;
74291;SDS011;62687;55.738;37.516;2022-12-18T03:59:27;6.20;;;3.42;;
74291;SDS011;62687;55.738;37.516;2022-12-18T04:02:14;9.35;;;4.43;;
74291;SDS011;62687;55.738;37.516;2022-12-18T04:05:01;7.78;;;4.05;;
74291;SDS011;62687;55.738;37.516;2022-12-18T04:07:48;6.80;;;3.90;;
74291;SDS011;62687;55.738;37.516;2022-12-18T04:10:34;9.30;;;4.40;;
74291;SDS011;62687;55.738;37.516;2022-12-18T04:13:29;8.07;;;3.95;;
74291;SDS011;62687;55.738;37.516;2022-12-18T04:16:16;9.73;;;5.15;;
74291;SDS011;62687;55.738;37.516;2022-12-18T04:19:00;8.50;;;4.45;;
74291;SDS011;62687;55.738;37.516;2022-12-18T04:21:44;7.43;;;3.95;;
74291;SDS011;62687;55.738;37.516;2022-12-18T04:24:28;7.15;;;4.30;;
74291;SDS011;62687;55.738;37.516;2022-12-18T04:27:12;7.75;;;3.88;;
74291;SDS011;62687;55.738;37.516;2022-12-18T04:29:56;6.72;;;2.97;;
74291;SDS011;62687;55.738;37.516;2022-12-18T04:32:40;8.43;;;4.20;;
74291;SDS011;62687;55.738;37.516;2022-12-18T04:35:25;6.38;;;3.58;;
74291;SDS011;62687;55.738;37.516;2022-12-18T04:38:09;7.82;;;3.72;;
74291;SDS011;62687;55.738;37.516;2022-12-18T04:40:54;8.20;;;4.15;;
74291;SDS011;62687;55.738;37.516;2022-12-18T04:43:38;9.63;;;3.80;;
74291;SDS011;62687;55.738;37.516;2022-12-18T04:46:22;8.40;;;3.72;;
74291;SDS011;62687;55.738;37.516;2022-12-18T04:49:06;8.57;;;3.95;;
74291;SDS011;62687;55.738;37.516;2022-12-18T04:51:49;10.60;;;4.65;;
74291;SDS011;62687;55.738;37.516;2022-12-18T04:54:33;9.07;;;4.30;;
74291;SDS011;62687;55.738;37.516;2022-12-18T04:57:17;9.63;;;4.07;;
74291;SDS011;62687;55.738;37.516;2022-12-18T05:00:01;9.60;;;4.60;;
74291;SDS011;62687;55.738;37.516;2022-12-18T05:02:46;9.05;;;4.53;;
74291;SDS011;62687;55.738;37.516;2022-12-18T05:05:30;8.27;;;3.65;;
74291;SDS011;62687;55.738;37.516;2022-12-18T05:08:14;8.25;;;4.03;;
74291;SDS011;62687;55.738;37.516;2022-12-18T05:11:02;10.27;;;4.30;;
74291;SDS011;62687;55.738;37.516;2022-12-18T05:13:51;10.27;;;5.38;;
74291;SDS011;62687;55.738;37.516;2022-12-18T05:16:35;11.05;;;3.15;;
74291;SDS011;62687;55.738;37.516;2022-12-18T05:19:19;8.82;;;4.50;;
74291;SDS011;62687;55.738;37.516;2022-12-18T05:22:03;8.25;;;4.28;;
74291;SDS011;62687;55.738;37.516;2022-12-18T05:24:47;7.07;;;3.53;;
74291;SDS011;62687;55.738;37.516;2022-12-18T05:27:31;10.65;;;4.55;;
74291;SDS011;62687;55.738;37.516;2022-12-18T05:30:15;8.77;;;4.32;;
74291;SDS011;62687;55.738;37.516;2022-12-18T05:33:00;8.70;;;4.30;;
74291;SDS011;62687;55.738;37.516;2022-12-18T05:35:44;8.50;;;4.10;;
74291;SDS011;62687;55.738;37.516;2022-12-18T05:38:34;9.02;;;4.15;;
74291;SDS011;62687;55.738;37.516;2022-12-18T05:41:19;11.70;;;4.75;;
74291;SDS011;62687;55.738;37.516;2022-12-18T05:44:03;8.73;;;3.47;;
74291;SDS011;62687;55.738;37.516;2022-12-18T05:46:47;10.43;;;4.63;;
74291;SDS011;62687;55.738;37.516;2022-12-18T05:49:31;8.75;;;4.25;;
74291;SDS011;62687;55.738;37.516;2022-12-18T05:52:15;6.32;;;3.67;;
74291;SDS011;62687;55.738;37.516;2022-12-18T05:54:59;8.35;;;4.45;;
74291;SDS011;62687;55.738;37.516;2022-12-18T05:57:43;7.90;;;3.72;;
74291;SDS011;62687;55.738;37.516;2022-12-18T06:00:27;9.73;;;4.88;;
74291;SDS011;62687;55.738;37.516;2022-12-18T06:03:11;8.30;;;3.70;;
74291;SDS011;62687;55.738;37.516;2022-12-18T06:05:56;7.90;;;3.67;;
74291;SDS011;62687;55.738;37.516;2022-12-18T06:08:40;9.27;;;3.42;;
74291;SDS011;62687;55.738;37.516;2022-12-18T06:11:25;9.80;;;4.25;;
74291;SDS011;62687;55.738;37.516;2022-12-18T06:14:10;10.52;;;3.88;;
74291;SDS011;62687;55.738;37.516;2022-12-18T06:16:54;7.97;;;4.40;;
74291;SDS011;62687;55.738;37.516;2022-12-18T06:19:38;7.40;;;3.80;;
74291;SDS011;62687;55.738;37.516;2022-12-18T06:22:22;9.45;;;4.55;;
74291;SDS011;62687;55.738;37.516;2022-12-18T06:25:07;8.32;;;4.38;;
74291;SDS011;62687;55.738;37.516;2022-12-18T06:27:51;12.88;;;4.78;;
74291;SDS011;62687;55.738;37.516;2022-12-18T06:30:35;10.27;;;4.45;;
74291;SDS011;62687;55.738;37.516;2022-12-18T06:33:20;7.05;;;3.85;;
74291;SDS011;62687;55.738;37.516;2022-12-18T06:36:09;10.48;;;5.07;;
74291;SDS011;62687;55.738;37.516;2022-12-18T06:38:54;11.85;;;4.57;;
74291;SDS011;62687;55.738;37.516;2022-12-18T06:41:40;8.18;;;3.20;;
74291;SDS011;62687;55.738;37.516;2022-12-18T06:44:24;10.52;;;4.85;;
74291;SDS011;62687;55.738;37.516;2022-12-18T06:47:08;8.98;;;4.57;;
74291;SDS011;62687;55.738;37.516;2022-12-18T06:49:52;12.20;;;3.88;;
74291;SDS011;62687;55.738;37.516;2022-12-18T06:52:35;5.55;;;2.88;;
74291;SDS011;62687;55.738;37.516;2022-12-18T06:55:20;9.63;;;3.65;;
74291;SDS011;62687;55.738;37.516;2022-12-18T06:58:04;12.02;;;4.85;;
74291;SDS011;62687;55.738;37.516;2022-12-18T07:00:48;11.00;;;4.53;;
74291;SDS011;62687;55.738;37.516;2022-12-18T07:03:32;9.57;;;4.03;;
74291;SDS011;62687;55.738;37.516;2022-12-18T07:06:18;10.90;;;4.72;;
74291;SDS011;62687;55.738;37.516;2022-12-18T07:09:03;7.70;;;3.47;;
74291;SDS011;62687;55.738;37.516;2022-12-18T07:11:47;7.63;;;3.40;;
74291;SDS011;62687;55.738;37.516;2022-12-18T07:14:31;13.80;;;4.47;;
74291;SDS011;62687;55.738;37.516;2022-12-18T07:17:15;10.80;;;4.63;;
74291;SDS011;62687;55.738;37.516;2022-12-18T07:19:59;7.22;;;3.88;;
74291;SDS011;62687;55.738;37.516;2022-12-18T07:22:43;13.43;;;4.88;;
74291;SDS011;62687;55.738;37.516;2022-12-18T07:25:27;9.90;;;5.25;;
74291;SDS011;62687;55.738;37.516;2022-12-18T07:28:11;10.52;;;4.53;;
74291;SDS011;62687;55.738;37.516;2022-12-18T07:30:56;9.25;;;4.18;;
74291;SDS011;62687;55.738;37.516;2022-12-18T07:33:40;6.95;;;3.63;;
74291;SDS011;62687;55.738;37.516;2022-12-18T07:36:24;10.18;;;4.30;;
74291;SDS011;62687;55.738;37.516;2022-12-18T07:39:08;8.38;;;4.50;;
74291;SDS011;62687;55.738;37.516;2022-12-18T07:41:52;8.23;;;3.83;;
74291;SDS011;62687;55.738;37.516;2022-12-18T07:44:55;15.57;;;5.38;;
74291;SDS011;62687;55.738;37.516;2022-12-18T07:47:39;8.15;;;3.70;;
74291;SDS011;62687;55.738;37.516;2022-12-18T07:50:24;6.20;;;2.97;;
74291;SDS011;62687;55.738;37.516;2022-12-18T07:53:08;8.80;;;3.03;;
74291;SDS011;62687;55.738;37.516;2022-12-18T07:55:56;8.40;;;4.00;;
74291;SDS011;62687;55.738;37.516;2022-12-18T07:58:44;10.88;;;4.43;;
74291;SDS011;62687;55.738;37.516;2022-12-18T08:01:28;8.18;;;4.47;;
74291;SDS011;62687;55.738;37.516;2022-12-18T08:04:12;10.15;;;4.40;;
74291;SDS011;62687;55.738;37.516;2022-12-18T08:06:56;8.00;;;3.85;;
74291;SDS011;62687;55.738;37.516;2022-12-18T08:09:40;9.00;;;4.07;;
74291;SDS011;62687;55.738;37.516;2022-12-18T08:12:24;9.60;;;4.40;;
74291;SDS011;62687;55.738;37.516;2022-12-18T08:15:08;10.43;;;4.68;;
74291;SDS011;62687;55.738;37.516;2022-12-18T08:17:55;8.68;;;3.90;;
74291;SDS011;62687;55.738;37.516;2022-12-18T08:20:43;9.48;;;4.85;;
74291;SDS011;62687;55.738;37.516;2022-12-18T08:23:27;9.57;;;4.20;;
74291;SDS011;62687;55.738;37.516;2022-12-18T08:26:11;8.18;;;4.13;;
74291;SDS011;62687;55.738;37.516;2022-12-18T08:28:55;9.00;;;4.28;;
74291;SDS011;62687;55.738;37.516;2022-12-18T08:31:41;11.57;;;5.13;;
74291;SDS011;62687;55.738;37.516;2022-12-18T08:34:25;9.93;;;4.80;;
74291;SDS011;62687;55.738;37.516;2022-12-18T08:37:09;8.02;;;3.67;;
74291;SDS011;62687;55.738;37.516;2022-12-18T08:39:53;8.80;;;4.53;;
74291;SDS011;62687;55.738;37.516;2022-12-18T08:42:37;7.10;;;3.92;;
74291;SDS011;62687;55.738;37.516;2022-12-18T08:45:40;8.48;;;3.60;;
74291;SDS011;62687;55.738;37.516;2022-12-18T08:48:24;8.02;;;4.05;;
74291;SDS011;62687;55.738;37.516;2022-12-18T08:51:08;9.63;;;4.18;;
74291;SDS011;62687;55.738;37.516;2022-12-18T08:53:56;9.38;;;3.92;;
74291;SDS011;62687;55.738;37.516;2022-12-18T08:56:40;10.57;;;3.95;;
74291;SDS011;62687;55.738;37.516;2022-12-18T08:59:24;13.93;;;5.03;;
74291;SDS011;62687;55.738;37.516;2022-12-18T09:02:10;5.63;;;3.05;;
74291;SDS011;62687;55.738;37.516;2022-12-18T09:04:55;7.13;;;3.97;;
74291;SDS011;62687;55.738;37.516;2022-12-18T09:07:38;8.57;;;4.10;;
74291;SDS011;62687;55.738;37.516;2022-12-18T09:10:23;9.38;;;4.35;;
74291;SDS011;62687;55.738;37.516;2022-12-18T09:13:07;9.25;;;4.05;;
74291;SDS011;62687;55.738;37.516;2022-12-18T09:15:52;10.13;;;3.83;;
74291;SDS011;62687;55.738;37.516;2022-12-18T09:18:40;11.70;;;4.20;;
74291;SDS011;62687;55.738;37.516;2022-12-18T09:21:30;8.98;;;3.50;;
74291;SDS011;62687;55.738;37.516;2022-12-18T09:24:16;7.80;;;4.13;;
74291;SDS011;62687;55.738;37.516;2022-12-18T09:27:00;7.93;;;3.50;;
74291;SDS011;62687;55.738;37.516;2022-12-18T09:29:44;7.50;;;3.78;;
74291;SDS011;62687;55.738;37.516;2022-12-18T09:32:29;8.07;;;3.25;;
74291;SDS011;62687;55.738;37.516;2022-12-18T09:35:13;7.18;;;3.55;;
74291;SDS011;62687;55.738;37.516;2022-12-18T09:37:58;9.43;;;3.95;;
74291;SDS011;62687;55.738;37.516;2022-12-18T09:40:46;9.00;;;3.67;;
74291;SDS011;62687;55.738;37.516;2022-12-18T09:43:40;7.72;;;2.78;;
74291;SDS011;62687;55.738;37.516;2022-12-18T09:46:27;6.85;;;3.00;;
74291;SDS011;62687;55.738;37.516;2022-12-18T09:49:16;7.60;;;3.72;;
74291;SDS011;62687;55.738;37.516;2022-12-18T09:55:11;7.38;;;3.05;;
74291;SDS011;62687;55.738;37.516;2022-12-18T10:01:25;7.82;;;3.30;;
74291;SDS011;62687;55.738;37.516;2022-12-18T10:04:11;6.30;;;3.10;;
74291;SDS011;62687;55.738;37.516;2022-12-18T10:07:03;5.68;;;3.35;;
74291;SDS011;62687;55.738;37.516;2022-12-18T10:10:13;7.25;;;3.08;;
74291;SDS011;62687;55.738;37.516;2022-12-18T10:13:07;14.48;;;4.45;;
74291;SDS011;62687;55.738;37.516;2022-12-18T10:25:34;4.70;;;2.65;;
74291;SDS011;62687;55.738;37.516;2022-12-18T10:28:23;6.82;;;3.20;;
74291;SDS011;62687;55.738;37.516;2022-12-18T10:31:27;7.15;;;3.30;;
74291;SDS011;62687;55.738;37.516;2022-12-18T10:34:11;7.00;;;3.45;;
74291;SDS011;62687;55.738;37.516;2022-12-18T10:36:56;8.55;;;3.80;;
74291;SDS011;62687;55.738;37.516;2022-12-18T10:39:40;13.43;;;3.78;;
74291;SDS011;62687;55.738;37.516;2022-12-18T10:42:24;5.65;;;2.70;;
74291;SDS011;62687;55.738;37.516;2022-12-18T10:47:57;3.67;;;2.15;;
74291;SDS011;62687;55.738;37.516;2022-12-18T10:50:42;5.47;;;2.80;;
74291;SDS011;62687;55.738;37.516;2022-12-18T10:53:32;5.20;;;2.58;;
74291;SDS011;62687;55.738;37.516;2022-12-18T10:56:19;7.47;;;3.83;;
74291;SDS011;62687;55.738;37.516;2022-12-18T11:01:56;6.72;;;3.25;;
74291;SDS011;62687;55.738;37.516;2022-12-18T11:04:50;4.82;;;2.45;;
74291;SDS011;62687;55.738;37.516;2022-12-18T11:07:57;6.13;;;2.70;;
74291;SDS011;62687;55.738;37.516;2022-12-18T11:10:40;7.13;;;3.30;;
74291;SDS011;62687;55.738;37.516;2022-12-18T11:13:30;6.07;;;2.72;;
74291;SDS011;62687;55.738;37.516;2022-12-18T11:16:19;7.20;;;3.47;;
74291;SDS011;62687;55.738;37.516;2022-12-18T11:19:17;6.20;;;3.08;;
74291;SDS011;62687;55.738;37.516;2022-12-18T11:27:56;7.65;;;3.35;;
74291;SDS011;62687;55.738;37.516;2022-12-18T11:30:42;4.75;;;2.50;;
74291;SDS011;62687;55.738;37.516;2022-12-18T11:33:26;8.50;;;3.10;;
74291;SDS011;62687;55.738;37.516;2022-12-18T11:36:10;6.97;;;3.42;;
74291;SDS011;62687;55.738;37.516;2022-12-18T11:38:55;8.93;;;3.13;;
74291;SDS011;62687;55.738;37.516;2022-12-18T11:45:02;6.60;;;2.42;;
74291;SDS011;62687;55.738;37.516;2022-12-18T11:47:52;7.45;;;3.55;;
74291;SDS011;62687;55.738;37.516;2022-12-18T11:53:36;7.15;;;2.90;;
74291;SDS011;62687;55.738;37.516;2022-12-18T12:11:53;5.38;;;2.75;;
74291;SDS011;62687;55.738;37.516;2022-12-18T12:24:33;6.80;;;2.70;;
74291;SDS011;62687;55.738;37.516;2022-12-18T12:30:30;4.35;;;1.83;;
74291;SDS011;62687;55.738;37.516;2022-12-18T12:33:40;3.65;;;2.05;;
74291;SDS011;62687;55.738;37.516;2022-12-18T12:40:02;5.18;;;2.00;;
74291;SDS011;62687;55.738;37.516;2022-12-18T12:46:24;7.10;;;2.40;;
74291;SDS011;62687;55.738;37.516;2022-12-18T12:49:14;6.22;;;2.08;;
74291;SDS011;62687;55.738;37.516;2022-12-18T12:55:28;6.05;;;2.13;;
74291;SDS011;62687;55.738;37.516;2022-12-18T12:58:23;6.60;;;2.20;;
74291;SDS011;62687;55.738;37.516;2022-12-18T13:01:28;8.70;;;2.50;;
74291;SDS011;62687;55.738;37.516;2022-12-18T13:07:14;4.13;;;1.63;;
74291;SDS011;62687;55.738;37.516;2022-12-18T13:13:04;4.18;;;2.30;;
74291;SDS011;62687;55.738;37.516;2022-12-18T13:16:06;6.43;;;3.00;;
74291;SDS011;62687;55.738;37.516;2022-12-18T13:18:55;7.47;;;2.83;;
74291;SDS011;62687;55.738;37.516;2022-12-18T13:21:41;6.63;;;2.40;;
74291;SDS011;62687;55.738;37.516;2022-12-18T13:24:27;9.23;;;3.58;;
74291;SDS011;62687;55.738;37.516;2022-12-18T13:36:13;10.80;;;4.05;;
74291;SDS011;62687;55.738;37.516;2022-12-18T13:44:48;12.23;;;4.13;;
74291;SDS011;62687;55.738;37.516;2022-12-18T13:47:36;12.45;;;4.35;;
74291;SDS011;62687;55.738;37.516;2022-12-18T13:50:24;11.82;;;4.10;;
74291;SDS011;62687;55.738;37.516;2022-12-18T13:53:30;9.27;;;3.38;;
74291;SDS011;62687;55.738;37.516;2022-12-18T13:56:43;7.70;;;3.75;;
74291;SDS011;62687;55.738;37.516;2022-12-18T13:59:38;10.38;;;3.55;;
74291;SDS011;62687;55.738;37.516;2022-12-18T14:02:25;5.13;;;2.15;;
74291;SDS011;62687;55.738;37.516;2022-12-18T14:05:24;6.30;;;2.80;;
74291;SDS011;62687;55.738;37.516;2022-12-18T14:08:11;5.75;;;2.75;;
74291;SDS011;62687;55.738;37.516;2022-12-18T14:10:58;6.70;;;2.85;;
74291;SDS011;62687;55.738;37.516;2022-12-18T14:13:41;10.43;;;4.30;;
74291;SDS011;62687;55.738;37.516;2022-12-18T14:16:26;13.02;;;4.32;;
74291;SDS011;62687;55.738;37.516;2022-12-18T14:19:17;8.15;;;3.50;;
74291;SDS011;62687;55.738;37.516;2022-12-18T14:22:01;9.45;;;3.47;;
74291;SDS011;62687;55.738;37.516;2022-12-18T14:24:46;6.78;;;2.97;;
74291;SDS011;62687;55.738;37.516;2022-12-18T14:27:44;6.57;;;3.05;;
74291;SDS011;62687;55.738;37.516;2022-12-18T14:30:40;4.35;;;2.10;;
74291;SDS011;62687;55.738;37.516;2022-12-18T14:33:28;7.78;;;2.70;;
74291;SDS011;62687;55.738;37.516;2022-12-18T14:36:14;5.55;;;2.42;;
74291;SDS011;62687;55.738;37.516;2022-12-18T14:39:00;3.10;;;1.42;;
74291;SDS011;62687;55.738;37.516;2022-12-18T14:41:44;7.57;;;3.03;;
74291;SDS011;62687;55.738;37.516;2022-12-18T14:44:29;3.22;;;1.60;;
74291;SDS011;62687;55.738;37.516;2022-12-18T14:47:14;9.25;;;2.53;;
74291;SDS011;62687;55.738;37.516;2022-12-18T14:49:59;5.20;;;2.47;;
74291;SDS011;62687;55.738;37.516;2022-12-18T14:52:43;6.72;;;2.58;;
74291;SDS011;62687;55.738;37.516;2022-12-18T14:55:28;4.45;;;1.70;;
74291;SDS011;62687;55.738;37.516;2022-12-18T14:58:13;6.10;;;2.47;;
74291;SDS011;62687;55.738;37.516;2022-12-18T15:00:59;6.35;;;2.50;;
74291;SDS011;62687;55.738;37.516;2022-12-18T15:03:43;5.80;;;2.47;;
74291;SDS011;62687;55.738;37.516;2022-12-18T15:06:32;5.82;;;2.10;;
74291;SDS011;62687;55.738;37.516;2022-12-18T15:09:23;5.57;;;2.25;;
74291;SDS011;62687;55.738;37.516;2022-12-18T15:18:21;3.05;;;1.77;;
74291;SDS011;62687;55.738;37.516;2022-12-18T15:21:26;5.28;;;2.55;;
74291;SDS011;62687;55.738;37.516;2022-12-18T15:24:18;4.22;;;1.98;;
74291;SDS011;62687;55.738;37.516;2022-12-18T15:27:19;6.03;;;2.28;;
74291;SDS011;62687;55.738;37.516;2022-12-18T15:32:52;6.10;;;3.00;;
74291;SDS011;62687;55.738;37.516;2022-12-18T15:36:13;5.32;;;2.47;;
74291;SDS011;62687;55.738;37.516;2022-12-18T15:38:58;6.53;;;2.70;;
74291;SDS011;62687;55.738;37.516;2022-12-18T15:41:42;8.15;;;3.53;;
74291;SDS011;62687;55.738;37.516;2022-12-18T15:44:46;2.95;;;1.25;;
74291;SDS011;62687;55.738;37.516;2022-12-18T15:47:32;5.45;;;2.42;;
74291;SDS011;62687;55.738;37.516;2022-12-18T15:50:17;5.70;;;2.10;;
74291;SDS011;62687;55.738;37.516;2022-12-18T15:53:01;5.22;;;2.47;;
74291;SDS011;62687;55.738;37.516;2022-12-18T15:55:45;7.13;;;2.78;;
74291;SDS011;62687;55.738;37.516;2022-12-18T15:58:48;5.10;;;2.33;;
74291;SDS011;62687;55.738;37.516;2022-12-18T16:01:32;5.10;;;2.13;;
74291;SDS011;62687;55.738;37.516;2022-12-18T16:04:17;5.18;;;2.45;;
74291;SDS011;62687;55.738;37.516;2022-12-18T16:07:04;6.10;;;2.70;;
74291;SDS011;62687;55.738;37.516;2022-12-18T16:09:48;3.67;;;1.80;;
74291;SDS011;62687;55.738;37.516;2022-12-18T16:12:32;5.85;;;2.25;;
74291;SDS011;62687;55.738;37.516;2022-12-18T16:15:16;5.10;;;2.55;;
74291;SDS011;62687;55.738;37.516;2022-12-18T16:18:00;3.70;;;2.05;;
74291;SDS011;62687;55.738;37.516;2022-12-18T16:20:44;4.85;;;2.55;;
74291;SDS011;62687;55.738;37.516;2022-12-18T16:23:28;9.55;;;2.70;;
74291;SDS011;62687;55.738;37.516;2022-12-18T16:26:12;3.95;;;2.10;;
74291;SDS011;62687;55.738;37.516;2022-12-18T16:28:56;4.28;;;2.45;;
74291;SDS011;62687;55.738;37.516;2022-12-18T16:31:40;6.30;;;2.65;;
74291;SDS011;62687;55.738;37.516;2022-12-18T16:37:13;5.78;;;2.20;;
74291;SDS011;62687;55.738;37.516;2022-12-18T16:39:59;8.43;;;3.47;;
74291;SDS011;62687;55.738;37.516;2022-12-18T16:42:43;7.95;;;3.30;;
74291;SDS011;62687;55.738;37.516;2022-12-18T16:45:28;8.27;;;3.13;;
74291;SDS011;62687;55.738;37.516;2022-12-18T16:48:16;5.38;;;2.22;;
74291;SDS011;62687;55.738;37.516;2022-12-18T16:51:03;6.13;;;2.45;;
74291;SDS011;62687;55.738;37.516;2022-12-18T16:53:48;4.47;;;1.50;;
74291;SDS011;62687;55.738;37.516;2022-12-18T16:56:32;4.28;;;1.73;;
74291;SDS011;62687;55.738;37.516;2022-12-18T16:59:16;3.38;;;1.75;;
74291;SDS011;62687;55.738;37.516;2022-12-18T17:02:04;2.55;;;1.45;;
74291;SDS011;62687;55.738;37.516;2022-12-18T17:04:49;5.70;;;1.67;;
74291;SDS011;62687;55.738;37.516;2022-12-18T17:07:33;4.38;;;1.80;;
74291;SDS011;62687;55.738;37.516;2022-12-18T17:10:17;3.35;;;2.00;;
74291;SDS011;62687;55.738;37.516;2022-12-18T17:13:01;3.17;;;1.95;;
74291;SDS011;62687;55.738;37.516;2022-12-18T17:15:46;5.75;;;1.95;;
74291;SDS011;62687;55.738;37.516;2022-12-18T17:18:30;2.83;;;1.52;;
74291;SDS011;62687;55.738;37.516;2022-12-18T17:21:10;2.70;;;1.35;;
74291;SDS011;62687;55.738;37.516;2022-12-18T17:23:58;2.28;;;1.05;;
74291;SDS011;62687;55.738;37.516;2022-12-18T17:26:44;5.03;;;2.33;;
74291;SDS011;62687;55.738;37.516;2022-12-18T17:29:28;5.65;;;2.90;;
74291;SDS011;62687;55.738;37.516;2022-12-18T17:32:13;3.85;;;1.80;;
74291;SDS011;62687;55.738;37.516;2022-12-18T17:34:57;2.72;;;1.38;;
74291;SDS011;62687;55.738;37.516;2022-12-18T17:37:41;3.53;;;2.13;;
74291;SDS011;62687;55.738;37.516;2022-12-18T17:40:25;2.25;;;1.13;;
74291;SDS011;62687;55.738;37.516;2022-12-18T17:43:09;4.50;;;2.42;;
74291;SDS011;62687;55.738;37.516;2022-12-18T17:45:54;4.43;;;1.95;;
74291;SDS011;62687;55.738;37.516;2022-12-18T17:48:39;3.97;;;1.75;;
74291;SDS011;62687;55.738;37.516;2022-12-18T17:51:23;4.38;;;2.38;;
74291;SDS011;62687;55.738;37.516;2022-12-18T17:54:08;2.85;;;1.52;;
74291;SDS011;62687;55.738;37.516;2022-12-18T17:56:54;9.45;;;2.63;;
74291;SDS011;62687;55.738;37.516;2022-12-18T17:59:38;6.97;;;2.90;;
74291;SDS011;62687;55.738;37.516;2022-12-18T18:02:22;3.92;;;2.25;;
74291;SDS011;62687;55.738;37.516;2022-12-18T18:05:06;6.82;;;3.15;;
74291;SDS011;62687;55.738;37.516;2022-12-18T18:07:50;5.30;;;2.45;;
74291;SDS011;62687;55.738;37.516;2022-12-18T18:10:35;4.28;;;2.00;;
74291;SDS011;62687;55.738;37.516;2022-12-18T18:13:21;7.65;;;3.47;;
74291;SDS011;62687;55.738;37.516;2022-12-18T18:16:30;3.50;;;1.63;;
74291;SDS011;62687;55.738;37.516;2022-12-18T18:19:17;7.15;;;3.50;;
74291;SDS011;62687;55.738;37.516;2022-12-18T18:22:06;5.95;;;2.65;;
74291;SDS011;62687;55.738;37.516;2022-12-18T18:24:50;6.93;;;3.30;;
74291;SDS011;62687;55.738;37.516;2022-12-18T18:27:34;6.57;;;2.83;;
74291;SDS011;62687;55.738;37.516;2022-12-18T18:30:18;6.28;;;2.03;;
74291;SDS011;62687;55.738;37.516;2022-12-18T18:33:02;3.45;;;1.85;;
74291;SDS011;62687;55.738;37.516;2022-12-18T18:35:47;8.10;;;3.35;;
74291;SDS011;62687;55.738;37.516;2022-12-18T18:38:31;5.57;;;2.20;;
74291;SDS011;62687;55.738;37.516;2022-12-18T18:41:15;6.88;;;2.60;;
74291;SDS011;62687;55.738;37.516;2022-12-18T18:43:59;2.55;;;1.73;;
74291;SDS011;62687;55.738;37.516;2022-12-18T18:46:43;4.63;;;1.98;;
74291;SDS011;62687;55.738;37.516;2022-12-18T18:49:28;6.72;;;2.63;;
74291;SDS011;62687;55.738;37.516;2022-12-18T18:52:12;7.22;;;2.97;;